Rapid City Regional Airport
KRAP : now visible

Airfield :











YOU CAN JOIN US ON...

 
LOGIN :

Register | Disclaimer

   EN    FR    IT 

 









Legend :    VFR   Marginal VFR   IFR   Intensive IFR   Very Intensive IFR
Visi :
Ceiling :
>= 8 km
>= 3000ft
5 to 8 km
1000 to 3000 ft
1500m to 5 km
500 to 1000 ft
800 to 1500m
200 to 500 ft
< 800m
< 200 ft
Symbols :   Thunderstorms  Fog  Heavy snow  Heavy precipitations  Wind > 20 kt






- Airport Elevation : 3204 ft
- IATA code : RAP


KRAP - Rapid City Regional

CURRENT METAR :
  • 090652Z AUTO 27003KT 10SM CLR 20/13 A3003 RMK AO2 SLP138 T02000133 403280111 $

EXPIRED METARs :
  • 090552Z AUTO 23005KT 10SM CLR 22/13 A3004 RMK AO2 SLP140 T02170133 10322 20200 50000 $
  • 090452Z AUTO 18003KT 10SM CLR 22/14 A3004 RMK AO2 SLP142 T02220139 $

TAF KRAP
Valid from the 09 at 06:00 until the 10 at 06:00 UTC


090520Z 0906/1006 VRB05KT P6SM SKC
KZDV FIR / North America



MET'MAP, your aeronautical weather chart ! - Copyright ORBIFLY December 2007 - Disclaimer

ORBIFLY MET'MAP TEAM :

Programming & Development : Alexandra Zaïnal
Original concept : Baudouin d'Aumeries
Technical & hardware support : Manuel Goepfert
Assistance : Marc-Olivier Méhu




SOURCES & CREDITS :

   NOAA       Earth
Advisory